T Rex — V7KA2 — position and weather

sailwx.info

Track history (hours):
 
Tides and Currents Weather Stations Pressure Air Temp Water Temp Dewpoint Dewpoint Depression Visibility Wind Speed Wind Dir Waves Ship Positions

T Rex

Last reported at 2017-Dec-10 23:13 UTC. Time now 2017-Dec-14 06:29 UTC.
Position N 41°16' E 140°10'.

Length 183 m; draft 12.2 m.

Type: Ship (hazmat cat B). MMSI: 538002594.

Date/timePositionNaut miles runAvg speedWind from/ knotsBaromVisibWave heightAir tempDewpointWater temp
2017-Dec-10 23:13N 41°16' E 140°10'3 8.9
2017-Dec-10 22:53N 41°18' E 140°13'12 9.1
2017-Dec-10 21:36N 41°25' E 140°25'110.0
2017-Dec-10 21:30N 41°25' E 140°26'511.1
2017-Dec-10 21:01N 41°29' E 140°32'510.4
2017-Dec-10 20:30N 41°32' E 140°38'5 9.9
2017-Dec-10 20:00N 41°34' E 140°43'510.3
2017-Dec-10 19:30N 41°38' E 140°48'5 9.7
2017-Dec-10 19:00N 41°38' E 140°55'5 9.8
2017-Dec-10 18:30N 41°38' E 141°01'510.1
2017-Dec-10 18:00N 41°38' E 141°08'611.1
2017-Dec-10 17:30N 41°38' E 141°15'612.1
2017-Dec-10 17:00N 41°38' E 141°24'611.1
2017-Dec-10 16:30N 41°37' E 141°31'610.5
2017-Dec-10 15:54N 41°36' E 141°39'  
Track history (hours):
 
Tides and Currents Weather Stations Pressure Air Temp Water Temp Dewpoint Dewpoint Depression Visibility Wind Speed Wind Dir Waves Ship Positions

T Rex

Last reported at 2017-Dec-10 23:13 UTC. Time now 2017-Dec-14 06:29 UTC.
Position N 41°16' E 140°10'.

Length 183 m; draft 12.2 m.

Type: Ship (hazmat cat B). MMSI: 538002594.

Date/timePositionNaut miles runAvg speedWind from/ knotsBaromVisibWave heightAir tempDewpointWater temp
2017-Dec-10 23:13N 41°16' E 140°10'3 8.9
2017-Dec-10 22:53N 41°18' E 140°13'12 9.1
2017-Dec-10 21:36N 41°25' E 140°25'110.0
2017-Dec-10 21:30N 41°25' E 140°26'511.1
2017-Dec-10 21:01N 41°29' E 140°32'510.4
2017-Dec-10 20:30N 41°32' E 140°38'5 9.9
2017-Dec-10 20:00N 41°34' E 140°43'510.3
2017-Dec-10 19:30N 41°38' E 140°48'5 9.7
2017-Dec-10 19:00N 41°38' E 140°55'5 9.8
2017-Dec-10 18:30N 41°38' E 141°01'510.1
2017-Dec-10 18:00N 41°38' E 141°08'611.1
2017-Dec-10 17:30N 41°38' E 141°15'612.1
2017-Dec-10 17:00N 41°38' E 141°24'611.1
2017-Dec-10 16:30N 41°37' E 141°31'610.5
2017-Dec-10 15:54N 41°36' E 141°39'  

Dump ship's entire track history